ドゥシャンベ の空港の天気 - METARとTAF

ドゥシャンベ空港 ( UTDD / DYU ) - タジキスタン ドゥシャンベ
飛行場実況気象(Metar)
観測時間07/15 16:30 TJT (07/15 11:30 UTC)
風向・風速北東 7m/s
視程10km以上
天気現象弱い雷雨
全天の4割程度の雲 雲底高度 1160m
全天の8割程度の雲 雲底高度 2560m
全天の8割程度の雲 雲底高度 3960m
気温30℃
湿度33%
気圧1006hPa
METARUTDD 151130Z 04007MPS 9999 -TSRA SCT038CB BKN084 BKN130 30/12 Q1006 R09/D TEMPO VRB10G15MPS RMK QFE687/0916
過去の天気等 Google飛行場航空写真 Wunderground天気予報

過去48時間のMETAR

飛行場予報(TAF)
発表時間: 7/15 14:00 TJT (7/15 09:00 UTC)
予報対象時間: 15日15時 TJT ~ 16日3時 TJT
風向・風速不定 2m/s
視程6000m
全天の4割程度の積乱雲 雲底高度 1830m
全天の8割程度の雲 雲底高度 3050m
15日15時 TJT ~ 16日1時 TJT に一時的に
風向・風速不定 8m/s 瞬間風速 13m/s
天気現象
TAF UTDD 150900Z 1510/1522 VRB02MPS 6000 SCT060CB BKN100
TEMPO 1510/1520 VRB08G13MPS TS